LPR weather

Lorain County Regional Airport
Lorain/Elyria, Ohio, United States

Public forecast

Using degrees Fahrenheit for public forecast. Weather courtesy of forecast.io.

Current aviation weather report (METAR) for Lorain County Regional Airport

Retrieved 2019/10/14 10:53 UTC (52 minutes ago):

KLPR 141053Z AUTO 26005KT 10SM OVC080 08/01 A2999 RMK AO2 SLP156 T00780011

Closest aviation forecast (TAF) to Lorain County Regional Airport

Closest forecast is Cleveland Hopkins International Airport, 15.3 nm (28.4 km) ENE. Retrieved 2019/10/14 06:22 UTC (5 hours ago):

TAF KCLE 140520Z 1406/1512 28004KT P6SM OVC150 FM140900 22004KT P6SM OVC070 FM141200 25007KT P6SM BKN045 FM142100 27006KT P6SM SCT060 FM150100 00000KT P6SM SCT250